CheckWX is a tool to help pilots better visualize weather data.  It is not intended as a substitute for an official pre-flight weather briefing.

21:39:21 UTC

SCIE TAF
Carriel Sur Airport
Concepcion, Chile
TAF SCIE 201615Z 2018/2118 23008KT CAVOK TX22/2018Z TN07/2111Z TEMPO 2018/2023 22015G25KT BECMG 2104/2106 20005KT TEMPO 2106/2112 15004KT BECMG 2114/2116 22012KT

Mar-20@
18:00 UTC

Mar-20 @ 18:00 UTC

Mar-21@
04:00 UTC

Mar-21 @ 04:00 UTC

TAF SCIE 201615Z 2018/2118 23008KT CAVOK TX22/2018Z TN07/2111Z
Wind
  • 230° at 8 KTS
Cloud Levels
  • No significant clouds

Mar-20@
18:00 UTC

Mar-20 @ 18:00 UTC

Mar-20@
23:00 UTC

Mar-20 @ 23:00 UTC

TEMPO 2018/2023 22015G25KT

Temporary

Temporary Changes expected for less than half the time period

Wind
  • 220° at 15 KTS
  • {Gusting to 25 KTS

Mar-21@
04:00 UTC

Mar-21 @ 04:00 UTC

Mar-21@
14:00 UTC

Mar-21 @ 14:00 UTC

BECMG 2104/2106 20005KT

Becoming

Becoming Conditions expected by Thu, Mar 21, 2019 @ 06:00 UTC

Wind
  • 200° at 5 KTS
Cloud Levels
  • No significant clouds

Mar-21@
06:00 UTC

Mar-21 @ 06:00 UTC

Mar-21@
12:00 UTC

Mar-21 @ 12:00 UTC

TEMPO 2106/2112 15004KT

Temporary

Temporary Changes expected for less than half the time period

Wind
  • 150° at 4 KTS

Mar-21@
14:00 UTC

Mar-21 @ 14:00 UTC

Mar-21@
18:00 UTC

Mar-21 @ 18:00 UTC

BECMG 2114/2116 22012KT

Becoming

Becoming Conditions expected by Thu, Mar 21, 2019 @ 16:00 UTC

Wind
  • 220° at 12 KTS
Cloud Levels
  • No significant clouds